createdAt,value
2022-11-24T00:00:39.092Z,98552.81
2022-11-24T00:03:43.225Z,98557.03
2022-11-24T00:06:46.949Z,98563.84
2022-11-24T00:09:50.709Z,98576.41
2022-11-24T00:12:54.400Z,98571.25
2022-11-24T00:16:08.348Z,98562.31
2022-11-24T00:19:15.885Z,98565.56
2022-11-24T00:22:22.198Z,98575.50
2022-11-24T00:25:25.885Z,98577.50
2022-11-24T00:28:29.629Z,98574.66
2022-11-24T00:31:36.764Z,98561.28
2022-11-24T00:34:40.608Z,98557.34
2022-11-24T00:37:44.358Z,98558.78
2022-11-24T00:40:47.988Z,98564.03
2022-11-24T00:43:51.748Z,98554.94
2022-11-24T00:46:56.924Z,98559.75
2022-11-24T00:50:00.719Z,98559.63
2022-11-24T00:53:04.566Z,98568.88
2022-11-24T00:56:09.028Z,98559.94
2022-11-24T00:59:12.700Z,98565.50
2022-11-24T01:02:17.920Z,98574.69
2022-11-24T01:05:21.837Z,98574.50
2022-11-24T01:08:25.598Z,98573.63
2022-11-24T01:11:51.448Z,98578.50
2022-11-24T01:14:55.147Z,98571.00
2022-11-24T01:18:00.338Z,98572.88
2022-11-24T01:21:10.022Z,98568.13
2022-11-24T01:24:14.478Z,98569.31
2022-11-24T01:27:18.044Z,98571.84
2022-11-24T01:30:22.347Z,98577.06
2022-11-24T01:33:27.662Z,98583.59
2022-11-24T01:36:31.299Z,98581.63
2022-11-24T01:39:35.019Z,98599.56
2022-11-24T01:42:44.160Z,98588.00
2022-11-24T01:45:48.967Z,98586.53
2022-11-24T01:49:03.391Z,98580.13
2022-11-24T01:52:12.668Z,98583.81
2022-11-24T01:55:22.148Z,98587.88
2022-11-24T01:58:31.539Z,98591.78
2022-11-24T02:01:35.871Z,98596.00
2022-11-24T02:04:41.904Z,98599.69
2022-11-24T02:07:46.390Z,98601.34
2022-11-24T02:10:50.252Z,98596.66
2022-11-24T02:13:55.662Z,98594.84
2022-11-24T02:16:59.350Z,98595.91
2022-11-24T02:20:07.220Z,98603.53
2022-11-24T02:23:18.742Z,98592.75
2022-11-24T02:26:32.157Z,98588.00
2022-11-24T02:29:35.828Z,98579.09
2022-11-24T02:32:43.348Z,98582.59
2022-11-24T02:35:47.078Z,98574.81
2022-11-24T02:38:50.689Z,98583.16
2022-11-24T02:42:00.488Z,98590.41
2022-11-24T02:45:04.716Z,98584.69
2022-11-24T02:48:08.855Z,98582.38
2022-11-24T02:51:12.426Z,98583.97
2022-11-24T02:54:16.055Z,98583.50
2022-11-24T02:57:21.140Z,98585.63
2022-11-24T03:00:25.028Z,98585.63
2022-11-24T03:03:28.917Z,98586.25
2022-11-24T03:06:32.717Z,98581.75
2022-11-24T03:09:36.388Z,98591.84
2022-11-24T03:12:43.408Z,98593.47
2022-11-24T03:15:47.217Z,98600.19
2022-11-24T03:18:52.437Z,98601.16
2022-11-24T03:21:56.124Z,98600.03
2022-11-24T03:24:59.798Z,98605.88
2022-11-24T03:28:05.042Z,98607.19
2022-11-24T03:31:09.660Z,98615.66
2022-11-24T03:34:13.385Z,98620.38
2022-11-24T03:37:17.328Z,98612.69
2022-11-24T03:40:20.972Z,98619.72
2022-11-24T03:43:26.166Z,98612.91
2022-11-24T03:46:29.844Z,98621.75
2022-11-24T03:49:33.703Z,98618.56
2022-11-24T03:52:37.388Z,98621.13
2022-11-24T03:55:40.927Z,98622.00
2022-11-24T03:58:45.969Z,98621.78
2022-11-24T04:01:49.808Z,98630.38
2022-11-24T04:04:53.508Z,98630.31
2022-11-24T04:07:57.757Z,98627.47
2022-11-24T04:11:01.436Z,98627.63
2022-11-24T04:14:09.203Z,98630.22
2022-11-24T04:17:16.843Z,98627.31
2022-11-24T04:20:20.481Z,98631.88
2022-11-24T04:23:24.470Z,98635.34
2022-11-24T04:26:28.111Z,98637.50
2022-11-24T04:29:33.269Z,98640.84
2022-11-24T04:32:37.478Z,98637.44
2022-11-24T04:35:41.259Z,98639.78
2022-11-24T04:39:24.246Z,98639.09
2022-11-24T04:42:08.689Z,98643.53
2022-11-24T04:45:13.865Z,98643.03
2022-11-24T04:48:17.499Z,98645.94
2022-11-24T04:51:21.238Z,98649.22
2022-11-24T04:54:24.807Z,98643.50
2022-11-24T04:57:28.631Z,98648.56
2022-11-24T05:00:33.819Z,98653.94
2022-11-24T05:03:38.165Z,98658.66
2022-11-24T05:06:42.450Z,98660.94
2022-11-24T05:10:03.640Z,98663.22
2022-11-24T05:13:10.814Z,98667.16
2022-11-24T05:16:16.018Z,98665.19
2022-11-24T05:19:20.116Z,98670.88
2022-11-24T05:22:23.880Z,98672.84
2022-11-24T05:25:27.540Z,98674.94
2022-11-24T05:28:31.929Z,98673.50
2022-11-24T05:31:37.219Z,98678.88
2022-11-24T05:34:40.917Z,98672.00
2022-11-24T05:37:44.621Z,98675.78
2022-11-24T05:40:48.332Z,98674.97
2022-11-24T05:43:52.059Z,98669.59
2022-11-24T05:46:57.307Z,98678.72
2022-11-24T05:50:01.119Z,98681.16
2022-11-24T05:53:05.949Z,98690.13
2022-11-24T05:56:10.239Z,98689.94
2022-11-24T05:59:13.948Z,98691.59
2022-11-24T06:02:19.453Z,98694.34
2022-11-24T06:05:23.419Z,98692.53
2022-11-24T06:08:31.105Z,98717.28
2022-11-24T06:11:35.533Z,98715.16
2022-11-24T06:14:39.478Z,98709.28
2022-11-24T06:17:45.238Z,98717.03
2022-11-24T06:21:09.720Z,98714.41
2022-11-24T06:24:13.359Z,98722.06
2022-11-24T06:27:17.098Z,98719.53
2022-11-24T06:30:20.928Z,98730.69
2022-11-24T06:33:26.121Z,98730.94
2022-11-24T06:36:29.909Z,98735.88
2022-11-24T06:39:33.668Z,98733.47
2022-11-24T06:42:37.998Z,98740.50
2022-11-24T06:45:41.822Z,98738.63
2022-11-24T06:48:47.350Z,98744.00
2022-11-24T06:51:51.073Z,98743.31
2022-11-24T06:54:55.139Z,98745.44
2022-11-24T06:57:58.827Z,98746.50
2022-11-24T07:01:02.533Z,98751.19
2022-11-24T07:04:07.869Z,98750.06
2022-11-24T07:07:11.703Z,98750.66
2022-11-24T07:10:15.707Z,98747.66
2022-11-24T07:13:19.488Z,98763.03
2022-11-24T07:16:25.167Z,98751.50
2022-11-24T07:19:31.410Z,98757.28
2022-11-24T07:22:35.721Z,98757.13
2022-11-24T07:25:39.409Z,98752.09
2022-11-24T07:28:43.118Z,98758.09
2022-11-24T07:31:47.363Z,98753.97
2022-11-24T07:34:52.690Z,98751.25
2022-11-24T07:37:57.132Z,98759.94
2022-11-24T07:41:04.519Z,98749.19
2022-11-24T07:44:08.759Z,98755.19
2022-11-24T07:47:12.428Z,98751.44
2022-11-24T07:50:18.199Z,98752.19
2022-11-24T07:53:21.860Z,98756.63
2022-11-24T07:56:25.601Z,98757.28
2022-11-24T07:59:29.390Z,98752.03
2022-11-24T08:02:33.197Z,98744.34
2022-11-24T08:05:49.138Z,98748.97
2022-11-24T08:09:02.147Z,98759.94
2022-11-24T08:12:06.208Z,98747.16
2022-11-24T08:15:11.576Z,98750.00
2022-11-24T08:18:15.348Z,98749.16
2022-11-24T08:21:20.898Z,98753.63
2022-11-24T08:24:24.739Z,98752.75
2022-11-24T08:27:28.430Z,98750.25
2022-11-24T08:30:32.448Z,98749.59
2022-11-24T08:33:36.971Z,98757.41
2022-11-24T08:36:42.138Z,98745.41
2022-11-24T08:39:45.839Z,98750.78
2022-11-24T08:42:49.529Z,98753.97
2022-11-24T08:45:53.274Z,98751.03
2022-11-24T08:48:57.241Z,98749.47
2022-11-24T08:52:02.491Z,98756.84
2022-11-24T08:55:06.719Z,98751.75
2022-11-24T08:58:10.499Z,98746.28
2022-11-24T09:01:16.730Z,98751.22
2022-11-24T09:04:20.642Z,98747.25
2022-11-24T09:07:26.222Z,98744.31
2022-11-24T09:10:32.340Z,98745.44
2022-11-24T09:13:36.760Z,98742.00
2022-11-24T09:16:40.543Z,98733.03
2022-11-24T09:19:44.258Z,98735.28
2022-11-24T09:22:49.366Z,98731.22
2022-11-24T09:25:53.038Z,98726.34
2022-11-24T09:28:58.338Z,98730.75
2022-11-24T09:32:06.561Z,98725.28
2022-11-24T09:35:10.940Z,98724.00
2022-11-24T09:38:16.128Z,98719.81
2022-11-24T09:41:34.738Z,98717.22
2022-11-24T09:45:04.559Z,98711.97
2022-11-24T09:48:15.986Z,98719.16
2022-11-24T09:51:25.161Z,98716.97
2022-11-24T09:54:33.058Z,98708.78
2022-11-24T09:57:40.728Z,98703.16
2022-11-24T10:00:44.641Z,98703.19
2022-11-24T10:03:51.710Z,98704.22
2022-11-24T10:07:06.680Z,98700.84
2022-11-24T10:10:24.274Z,98686.91
2022-11-24T10:14:02.041Z,98691.00
2022-11-24T10:17:20.107Z,98684.69
2022-11-24T10:20:30.799Z,98682.28
2022-11-24T10:23:44.169Z,98685.41
2022-11-24T10:26:53.309Z,98685.41
2022-11-24T10:29:57.955Z,98687.34
2022-11-24T10:33:05.378Z,98682.53
2022-11-24T10:36:14.728Z,98677.59
2022-11-24T10:39:25.008Z,98681.09
2022-11-24T10:42:31.958Z,98676.09
2022-11-24T10:45:37.800Z,98676.41
2022-11-24T10:48:47.330Z,98679.13
2022-11-24T10:52:06.219Z,98677.41
2022-11-24T10:55:10.768Z,98677.09
2022-11-24T10:58:18.628Z,98680.97
2022-11-24T11:01:30.196Z,98684.03
2022-11-24T11:04:35.977Z,98679.56
2022-11-24T11:07:39.775Z,98678.06
2022-11-24T11:10:44.609Z,98679.44
2022-11-24T11:14:01.672Z,98677.84
2022-11-24T11:17:34.211Z,98676.97
2022-11-24T11:20:38.010Z,98683.94
2022-11-24T11:23:42.244Z,98676.59
2022-11-24T11:26:46.320Z,98675.22
2022-11-24T11:36:51.481Z,98674.03
2022-11-24T11:39:56.359Z,98667.13
2022-11-24T11:43:05.260Z,98672.31
2022-11-24T11:46:15.752Z,98680.63
2022-11-24T11:49:19.516Z,98677.56
2022-11-24T11:52:52.898Z,98679.88
2022-11-24T11:56:07.880Z,98683.66
2022-11-24T11:59:39.408Z,98691.06
2022-11-24T12:03:20.262Z,98679.69
2022-11-24T12:06:43.208Z,98687.53
2022-11-24T12:09:57.280Z,98692.28
2022-11-24T12:13:20.116Z,98697.63
2022-11-24T12:16:36.247Z,98699.50
2022-11-24T12:19:58.598Z,98699.72
2022-11-24T12:23:13.029Z,98703.19
2022-11-24T12:26:28.546Z,98705.00
2022-11-24T12:30:12.191Z,98716.16
2022-11-24T12:33:57.917Z,98717.13
2022-11-24T12:37:35.038Z,98732.53
2022-11-24T12:41:18.158Z,98737.72
2022-11-24T12:44:37.446Z,98737.53
2022-11-24T12:47:56.227Z,98739.50
2022-11-24T12:51:01.169Z,98737.38
2022-11-24T12:54:11.497Z,98734.41
2022-11-24T12:57:19.797Z,98734.81
2022-11-24T13:00:25.009Z,98732.53
2022-11-24T13:03:41.679Z,98724.75
2022-11-24T13:06:53.387Z,98736.72
2022-11-24T13:14:00.015Z,98744.75
2022-11-24T13:17:28.510Z,98755.19
2022-11-24T13:20:35.178Z,98758.06
2022-11-24T13:23:39.199Z,98757.03
2022-11-24T13:26:48.977Z,98752.03
2022-11-24T13:29:54.027Z,98765.84
2022-11-24T13:33:24.255Z,98758.75
2022-11-24T13:36:33.750Z,98769.63
2022-11-24T13:39:50.667Z,98768.81
2022-11-24T13:43:23.827Z,98764.63
2022-11-24T13:47:03.525Z,98771.69
2022-11-24T13:50:11.929Z,98780.66
2022-11-24T13:53:23.749Z,98774.31
2022-11-24T13:56:31.097Z,98774.25
2022-11-24T13:59:36.958Z,98771.66
2022-11-24T14:02:45.751Z,98781.22
2022-11-24T14:05:52.447Z,98794.78
2022-11-24T14:08:59.289Z,98792.50
2022-11-24T14:12:16.493Z,98798.09
2022-11-24T14:15:26.607Z,98807.75
2022-11-24T14:18:31.618Z,98816.34
2022-11-24T14:21:40.668Z,98813.53
2022-11-24T14:24:45.660Z,98816.78
2022-11-24T14:27:49.418Z,98830.97
2022-11-24T14:31:09.086Z,98830.44
2022-11-24T14:34:18.468Z,98835.03
2022-11-24T14:37:22.187Z,98848.47
2022-11-24T14:40:43.403Z,98854.22
2022-11-24T14:43:47.171Z,98841.53
2022-11-24T14:46:52.702Z,98854.38
2022-11-24T14:49:58.314Z,98872.13
2022-11-24T14:53:02.405Z,98880.13
2022-11-24T14:56:11.030Z,98875.63
2022-11-24T14:59:23.357Z,98876.44
2022-11-24T15:02:48.768Z,98889.00
2022-11-24T15:05:56.270Z,98873.63
2022-11-24T15:09:00.091Z,98884.09
2022-11-24T15:12:08.781Z,98900.34
2022-11-24T15:15:21.499Z,98906.88
2022-11-24T15:18:32.249Z,98915.94
2022-11-24T15:21:38.269Z,98912.84
2022-11-24T15:24:50.978Z,98920.06
2022-11-24T15:27:54.808Z,98932.66
2022-11-24T15:31:02.268Z,98944.38
2022-11-24T15:34:07.988Z,98955.38
2022-11-24T15:37:11.951Z,98960.06
2022-11-24T15:40:16.518Z,98961.41
2022-11-24T15:43:29.578Z,98975.75
2022-11-24T15:46:38.445Z,98980.19
2022-11-24T15:49:43.677Z,98974.78
2022-11-24T15:52:49.078Z,98976.13
2022-11-24T15:55:54.249Z,98974.97
2022-11-24T15:58:58.328Z,98979.88
2022-11-24T16:02:02.215Z,98984.44
2022-11-24T16:05:08.686Z,98979.56
2022-11-24T16:08:14.568Z,98977.75
2022-11-24T16:11:21.321Z,98980.84
2022-11-24T16:14:28.208Z,98985.91
2022-11-24T16:17:32.040Z,98986.56
2022-11-24T16:20:37.586Z,98989.97
2022-11-24T16:23:41.828Z,98998.66
2022-11-24T16:26:45.571Z,98994.69
2022-11-24T16:29:49.328Z,99004.22
2022-11-24T16:32:52.981Z,98994.75
2022-11-24T16:35:58.978Z,98998.00
2022-11-24T16:39:02.692Z,98997.69
2022-11-24T16:42:06.638Z,99002.56
2022-11-24T16:45:14.091Z,99009.28
2022-11-24T16:48:30.242Z,99006.00
2022-11-24T16:51:35.422Z,99012.53
2022-11-24T16:54:39.212Z,99008.59
2022-11-24T16:57:42.950Z,99011.94
2022-11-24T17:00:46.623Z,99000.38
2022-11-24T17:03:50.358Z,99000.91
2022-11-24T17:06:55.559Z,99001.56
2022-11-24T17:10:00.834Z,99009.16
2022-11-24T17:13:04.668Z,99009.66
2022-11-24T17:16:10.643Z,99004.09
2022-11-24T17:19:14.438Z,99008.44
2022-11-24T17:22:19.668Z,99007.38
2022-11-24T17:25:23.430Z,99003.59
2022-11-24T17:28:27.162Z,99014.34
2022-11-24T17:31:32.905Z,99010.41
2022-11-24T17:34:36.788Z,99007.53
2022-11-24T17:37:42.299Z,99012.03
2022-11-24T17:40:49.161Z,99015.63
2022-11-24T17:43:55.662Z,99007.31
2022-11-24T17:47:01.138Z,99007.19
2022-11-24T17:50:05.079Z,99016.53
2022-11-24T17:53:10.286Z,99021.53
2022-11-24T17:56:15.967Z,99022.03
2022-11-24T17:59:19.765Z,99031.28
2022-11-24T18:02:23.610Z,99023.00
2022-11-24T18:05:27.276Z,99031.34
2022-11-24T18:08:33.988Z,99029.59
2022-11-24T18:11:37.938Z,99030.84
2022-11-24T18:14:41.678Z,99043.13
2022-11-24T18:17:45.486Z,99041.81
2022-11-24T18:20:55.609Z,99041.00
2022-11-24T18:24:00.879Z,99040.34
2022-11-24T18:27:04.629Z,99038.03
2022-11-24T18:30:09.750Z,99030.19
2022-11-24T18:36:19.875Z,99057.81
2022-11-24T18:39:25.028Z,99061.09
2022-11-24T18:42:30.699Z,99060.59
2022-11-24T18:45:34.485Z,99062.25
2022-11-24T18:48:38.240Z,99062.00
2022-11-24T18:51:42.289Z,99063.53
2022-11-24T18:54:47.499Z,99065.84
2022-11-24T18:57:51.318Z,99078.50
2022-11-24T19:00:55.624Z,99072.00
2022-11-24T19:04:02.016Z,99076.72
2022-11-24T19:07:06.028Z,99066.28
2022-11-24T19:10:12.409Z,99070.69
2022-11-24T19:13:16.330Z,99076.13
2022-11-24T19:16:21.456Z,99074.78
2022-11-24T19:19:25.239Z,99080.38
2022-11-24T19:22:28.914Z,99069.91
2022-11-24T19:25:34.115Z,99079.00
2022-11-24T19:28:38.735Z,99083.78
2022-11-24T19:31:44.102Z,99082.41
2022-11-24T19:34:48.088Z,99095.81
2022-11-24T19:37:51.875Z,99096.03
2022-11-24T19:41:02.066Z,99092.19
2022-11-24T19:44:06.187Z,99101.94
2022-11-24T19:47:09.895Z,99099.06
2022-11-24T19:50:14.146Z,99108.50
2022-11-24T19:53:17.967Z,99097.66
2022-11-24T19:56:34.417Z,99094.19
2022-11-24T19:59:41.886Z,99098.06
2022-11-24T20:02:52.538Z,99103.38
2022-11-24T20:05:59.745Z,99116.06
2022-11-24T20:09:03.498Z,99113.19
2022-11-24T20:12:10.042Z,99117.13
2022-11-24T20:15:13.738Z,99118.31
2022-11-24T20:18:17.507Z,99117.06
2022-11-24T20:21:22.928Z,99122.28
2022-11-24T20:24:26.729Z,99122.16
2022-11-24T20:27:31.839Z,99121.06
2022-11-24T20:30:35.579Z,99125.59
2022-11-24T20:33:40.807Z,99119.69
2022-11-24T20:36:46.977Z,99115.28
2022-11-24T20:39:52.308Z,99128.16
2022-11-24T20:42:57.468Z,99137.81
2022-11-24T20:46:04.194Z,99139.25
2022-11-24T20:49:10.389Z,99139.84
2022-11-24T20:52:14.114Z,99129.16
2022-11-24T20:55:17.968Z,99134.09
2022-11-24T20:58:23.128Z,99130.34
2022-11-24T21:01:29.021Z,99130.50
2022-11-24T21:04:35.614Z,99124.31
2022-11-24T21:07:39.558Z,99124.69
2022-11-24T21:10:43.269Z,99131.00
2022-11-24T21:13:49.478Z,99123.41
2022-11-24T21:16:54.027Z,99118.75
2022-11-24T21:20:01.004Z,99132.59
2022-11-24T21:23:07.209Z,99140.53
2022-11-24T21:26:16.562Z,99138.94
2022-11-24T21:29:25.891Z,99132.09
2022-11-24T21:32:29.678Z,99138.34
2022-11-24T21:35:36.716Z,99140.44
2022-11-24T21:38:44.879Z,99129.13
2022-11-24T21:41:49.178Z,99138.25
2022-11-24T21:44:54.326Z,99137.41
2022-11-24T21:47:58.219Z,99140.84
2022-11-24T21:51:03.166Z,99138.97
2022-11-24T21:54:07.297Z,99147.66
2022-11-24T21:57:11.058Z,99153.63
2022-11-24T22:00:17.558Z,99151.66
2022-11-24T22:03:22.206Z,99148.69
2022-11-24T22:06:26.288Z,99156.44
2022-11-24T22:09:29.984Z,99161.41
2022-11-24T22:12:33.668Z,99166.13
2022-11-24T22:15:38.678Z,99166.94
2022-11-24T22:18:43.908Z,99167.34
2022-11-24T22:21:47.687Z,99171.06
2022-11-24T22:24:51.428Z,99179.38
2022-11-24T22:27:55.189Z,99180.38
2022-11-24T22:31:00.412Z,99179.50
2022-11-24T22:34:04.169Z,99175.16
2022-11-24T22:37:07.948Z,99177.00
2022-11-24T22:40:12.236Z,99176.75
2022-11-24T22:43:20.230Z,99166.03
2022-11-24T22:46:29.730Z,99171.16
2022-11-24T22:49:33.349Z,99169.13
2022-11-24T22:52:37.720Z,99163.38
2022-11-24T22:55:41.518Z,99153.94
2022-11-24T22:58:45.688Z,99148.00
2022-11-24T23:01:50.806Z,99147.03
2022-11-24T23:04:54.507Z,99160.34
2022-11-24T23:07:58.188Z,99160.13
2022-11-24T23:11:03.020Z,99145.38
2022-11-24T23:14:08.100Z,99149.69
2022-11-24T23:17:13.250Z,99158.63
2022-11-24T23:20:17.240Z,99163.19
2022-11-24T23:23:20.985Z,99167.13
2022-11-24T23:26:26.873Z,99162.09
2022-11-24T23:29:30.470Z,99171.00
2022-11-24T23:32:35.580Z,99168.94
2022-11-24T23:35:39.321Z,99158.41
2022-11-24T23:38:43.530Z,99166.19
2022-11-24T23:41:49.990Z,99169.72
2022-11-24T23:44:56.480Z,99170.47
2022-11-24T23:48:02.561Z,99178.56
2022-11-24T23:51:08.659Z,99180.56
2022-11-24T23:54:12.514Z,99173.34
2022-11-24T23:57:16.332Z,99178.97
